Terminal Aerodrome Forecast
Issued by NWS

Home | Current Version | Previous Version | Text Only | Print | Product List | Glossary On
Versions: 1 2 3 4 5 6 7 8 9 10 11 12 13 14
000
FTUS45 KREV 202300
TAFMMH
TAF
KMMH 202331Z 2100/2124 26010G17KT P6SM SKC
     FM210200 VRB03KT P6SM SCT180
     FM211900 22016G27KT P6SM SCT100 OVC160
      AMD NOT SKED 2102/2114=

USA.gov is the U.S. government's official web portal to all federal, state and local government web resources and services.